createdAt,value
2019-04-22T00:29:14.244Z,42.30
2019-04-22T00:41:29.695Z,43.00
2019-04-22T00:59:34.761Z,44.90
2019-04-22T01:22:46.202Z,45.90
2019-04-22T02:03:54.472Z,48.60
2019-04-22T02:09:56.104Z,48.80
2019-04-22T03:59:12.099Z,53.30
2019-04-22T05:23:22.196Z,55.20
2019-04-22T05:28:19.807Z,55.50
2019-04-22T05:33:33.205Z,55.90
2019-04-22T05:43:42.609Z,55.80
2019-04-22T05:48:49.258Z,55.70
2019-04-22T05:53:59.400Z,55.70
2019-04-22T05:58:58.631Z,55.40
2019-04-22T06:04:05.477Z,55.50
2019-04-22T06:09:10.892Z,55.30
2019-04-22T06:14:19.036Z,55.00
2019-04-22T06:19:38.663Z,54.70
2019-04-22T06:24:27.448Z,54.40
2019-04-22T06:29:31.980Z,54.30
2019-04-22T06:34:45.200Z,54.10
2019-04-22T06:39:53.704Z,53.70
2019-04-22T06:45:02.779Z,53.40
2019-04-22T06:49:58.927Z,52.90
2019-04-22T06:55:09.803Z,52.60
2019-04-22T07:00:23.045Z,52.10
2019-04-22T07:05:25.289Z,52.10
2019-04-22T07:10:35.285Z,51.90
2019-04-22T07:15:47.092Z,51.60
2019-04-22T07:20:44.546Z,51.50
2019-04-22T07:25:47.938Z,51.20
2019-04-22T07:30:56.109Z,51.10
2019-04-22T07:36:23.439Z,50.80
2019-04-22T07:41:02.590Z,50.60
2019-04-22T07:46:13.511Z,50.40
2019-04-22T07:51:32.843Z,49.90
2019-04-22T07:56:24.623Z,49.20
2019-04-22T08:01:26.413Z,48.70
2019-04-22T08:06:43.780Z,48.30
2019-04-22T08:16:51.602Z,46.60
2019-04-22T08:21:57.087Z,46.00
2019-04-22T08:26:59.345Z,45.50
2019-04-22T08:32:06.472Z,45.00
2019-04-22T08:42:32.304Z,44.10
2019-04-22T08:52:50.239Z,42.70
2019-04-22T08:57:47.016Z,42.00
2019-04-22T09:02:46.663Z,41.60
2019-04-22T09:08:05.891Z,41.20
2019-04-22T09:18:06.732Z,39.30
2019-04-22T09:23:07.703Z,38.60
2019-04-22T09:28:20.417Z,37.70
2019-04-22T09:33:25.781Z,37.10
2019-04-22T09:58:53.570Z,34.40
2019-04-22T10:14:07.380Z,31.90
2019-04-22T10:24:31.966Z,29.60
2019-04-22T10:29:24.418Z,29.40
2019-04-22T10:34:16.839Z,29.00
2019-04-22T10:39:12.641Z,28.50
2019-04-22T10:44:17.222Z,27.30
2019-04-22T10:49:22.399Z,26.50
2019-04-22T10:54:27.408Z,26.30
2019-04-22T10:59:32.310Z,25.50
2019-04-22T11:04:40.421Z,24.80
2019-04-22T11:09:51.744Z,24.30
2019-04-22T11:14:51.784Z,23.70
2019-04-22T11:19:57.462Z,22.80
2019-04-22T11:25:01.818Z,22.10
2019-04-22T11:30:07.966Z,21.80
2019-04-22T11:35:12.318Z,22.40
2019-04-22T11:40:24.398Z,22.20
2019-04-22T11:45:23.479Z,21.90
2019-04-22T11:50:28.177Z,22.10
2019-04-22T11:55:32.906Z,21.20
2019-04-22T12:00:38.857Z,21.20
2019-04-22T12:05:43.953Z,21.00
2019-04-22T12:10:54.206Z,20.70
2019-04-22T12:15:55.366Z,21.00
2019-04-22T12:21:01.235Z,21.10
2019-04-22T12:26:10.808Z,20.70
2019-04-22T12:31:11.567Z,20.70
2019-04-22T12:36:15.751Z,20.60
2019-04-22T12:41:21.545Z,19.80
2019-04-22T12:46:26.169Z,19.80
2019-04-22T12:51:31.367Z,20.20
2019-04-22T12:56:35.601Z,20.10
2019-04-22T13:01:39.804Z,20.40
2019-04-22T13:06:44.129Z,19.90
2019-04-22T13:11:48.957Z,20.10
2019-04-22T13:16:53.610Z,20.20
2019-04-22T13:22:00.756Z,19.90
2019-04-22T13:27:06.578Z,19.60
2019-04-22T13:32:10.983Z,19.70
2019-04-22T13:37:16.894Z,19.60
2019-04-22T13:42:23.207Z,19.40
2019-04-22T13:47:41.507Z,19.40
2019-04-22T13:53:13.913Z,19.60
2019-04-22T13:57:54.041Z,19.00
2019-04-22T14:02:52.896Z,19.30
2019-04-22T14:07:57.575Z,19.20
2019-04-22T14:13:03.717Z,17.60
2019-04-22T14:18:08.373Z,18.50
2019-04-22T14:23:14.290Z,18.80
2019-04-22T14:28:21.403Z,18.90
2019-04-22T14:33:24.633Z,19.00
2019-04-22T14:38:30.152Z,19.50
2019-04-22T14:44:23.488Z,19.70
2019-04-22T14:49:06.761Z,19.80
2019-04-22T14:54:08.581Z,19.40
2019-04-22T14:58:53.148Z,19.30
2019-04-22T15:03:58.652Z,19.20
2019-04-22T15:09:03.850Z,18.80
2019-04-22T15:14:09.555Z,18.80
2019-04-22T15:19:18.358Z,18.80
2019-04-22T15:24:26.944Z,19.00
2019-04-22T15:29:31.691Z,19.10
2019-04-22T15:34:36.665Z,19.20
2019-04-22T15:39:41.525Z,20.00
2019-04-22T15:44:46.210Z,19.70
2019-04-22T15:49:52.073Z,19.70
2019-04-22T15:54:56.499Z,19.90
2019-04-22T16:00:15.415Z,20.00
2019-04-22T16:05:08.604Z,19.90
2019-04-22T16:10:15.422Z,20.00
2019-04-22T16:15:20.483Z,20.30
2019-04-22T16:20:26.025Z,20.60
2019-04-22T16:25:49.269Z,20.80
2019-04-22T16:30:55.208Z,20.90
2019-04-22T16:36:00.582Z,21.00
2019-04-22T16:41:06.386Z,21.30
2019-04-22T16:46:11.770Z,21.60
2019-04-22T16:51:16.231Z,21.80
2019-04-22T16:56:20.645Z,21.90
2019-04-22T17:01:32.640Z,22.60
2019-04-22T17:06:39.449Z,24.10
2019-04-22T17:11:43.833Z,25.00
2019-04-22T17:16:48.559Z,25.90
2019-04-22T17:21:53.441Z,26.20
2019-04-22T17:26:57.757Z,26.40
2019-04-22T17:32:06.400Z,26.80
2019-04-22T17:37:14.212Z,27.20
2019-04-22T17:42:29.352Z,27.40
2019-04-22T17:47:36.488Z,27.60
2019-04-22T17:52:50.814Z,27.90
2019-04-22T17:57:52.679Z,28.40
2019-04-22T18:02:48.422Z,28.70
2019-04-22T18:08:09.712Z,29.10
2019-04-22T18:13:21.710Z,29.30
2019-04-22T18:18:19.085Z,29.70
2019-04-22T18:23:12.052Z,29.90
2019-04-22T18:28:31.666Z,30.00
2019-04-22T18:33:33.266Z,30.20
2019-04-22T18:38:49.725Z,30.50
2019-04-22T18:43:51.789Z,31.20
2019-04-22T18:48:58.481Z,31.70
2019-04-22T18:54:06.222Z,32.10
2019-04-22T18:59:01.397Z,32.40
2019-04-22T19:04:11.653Z,32.60
2019-04-22T19:09:40.017Z,32.80
2019-04-22T19:14:51.171Z,32.70
2019-04-22T19:20:03.144Z,33.00
2019-04-22T19:25:08.994Z,33.00
2019-04-22T19:30:39.571Z,33.00
2019-04-22T19:35:49.152Z,33.00
2019-04-22T20:06:22.203Z,33.60
2019-04-22T20:54:22.889Z,34.40
2019-04-22T20:59:57.606Z,34.60
2019-04-22T21:10:57.942Z,34.90
2019-04-22T21:16:16.507Z,35.20
2019-04-22T21:21:23.329Z,35.30
2019-04-22T21:31:54.627Z,35.40
2019-04-22T21:42:36.779Z,35.50
2019-04-22T21:47:46.194Z,35.50
2019-04-22T21:58:38.130Z,35.50
2019-04-22T22:03:33.501Z,35.50
2019-04-22T22:08:49.004Z,35.60
2019-04-22T22:13:55.309Z,35.70
2019-04-22T22:19:09.830Z,35.70
2019-04-22T22:24:22.582Z,35.70
2019-04-22T22:29:36.821Z,35.70
2019-04-22T22:34:36.142Z,35.80
2019-04-22T22:39:35.729Z,35.90
2019-04-22T22:44:36.066Z,35.90
2019-04-22T22:49:56.606Z,35.90
2019-04-22T22:55:06.978Z,35.90
2019-04-22T23:00:15.082Z,36.00
2019-04-22T23:05:26.036Z,36.00
2019-04-22T23:10:38.151Z,36.20
2019-04-22T23:15:33.062Z,36.20
2019-04-22T23:20:28.889Z,36.20
2019-04-22T23:25:59.651Z,36.30
2019-04-22T23:31:07.800Z,36.40
2019-04-22T23:36:13.710Z,36.60
2019-04-22T23:46:59.813Z,37.00
2019-04-22T23:52:20.738Z,37.00
2019-04-22T23:57:28.666Z,37.30
